sensor_id;sensor_type;location;lat;lon;timestamp;temperature;humidity
64226;DHT22;50545;56.064;26.178;2023-01-16T00:00:27;2.90;99.90
64226;DHT22;50545;56.064;26.178;2023-01-16T00:02:54;2.90;99.90
64226;DHT22;50545;56.064;26.178;2023-01-16T00:05:21;2.90;99.90
64226;DHT22;50545;56.064;26.178;2023-01-16T00:07:48;2.90;99.90
64226;DHT22;50545;56.064;26.178;2023-01-16T00:10:16;2.90;99.90
64226;DHT22;50545;56.064;26.178;2023-01-16T00:12:47;2.90;99.90
64226;DHT22;50545;56.064;26.178;2023-01-16T00:15:14;2.90;99.90
64226;DHT22;50545;56.064;26.178;2023-01-16T00:17:41;2.90;99.90
64226;DHT22;50545;56.064;26.178;2023-01-16T00:20:09;3.00;99.90
64226;DHT22;50545;56.064;26.178;2023-01-16T00:22:37;3.00;99.90
64226;DHT22;50545;56.064;26.178;2023-01-16T00:25:04;3.00;99.90
64226;DHT22;50545;56.064;26.178;2023-01-16T00:27:32;3.00;99.90
64226;DHT22;50545;56.064;26.178;2023-01-16T00:29:59;3.00;99.90
64226;DHT22;50545;56.064;26.178;2023-01-16T00:32:26;3.00;99.90
64226;DHT22;50545;56.064;26.178;2023-01-16T00:34:54;3.00;99.90
64226;DHT22;50545;56.064;26.178;2023-01-16T00:37:21;3.00;99.90
64226;DHT22;50545;56.064;26.178;2023-01-16T00:39:49;3.10;99.90
64226;DHT22;50545;56.064;26.178;2023-01-16T00:42:18;3.10;99.90
64226;DHT22;50545;56.064;26.178;2023-01-16T00:44:46;3.00;99.90
64226;DHT22;50545;56.064;26.178;2023-01-16T00:47:13;3.10;99.90
64226;DHT22;50545;56.064;26.178;2023-01-16T00:49:40;3.10;99.90
64226;DHT22;50545;56.064;26.178;2023-01-16T00:52:07;3.10;99.90
64226;DHT22;50545;56.064;26.178;2023-01-16T00:54:35;3.10;99.90
64226;DHT22;50545;56.064;26.178;2023-01-16T00:57:02;3.10;99.90
64226;DHT22;50545;56.064;26.178;2023-01-16T00:59:30;3.10;99.90
64226;DHT22;50545;56.064;26.178;2023-01-16T01:01:57;3.10;99.90
64226;DHT22;50545;56.064;26.178;2023-01-16T01:04:24;3.10;99.90
64226;DHT22;50545;56.064;26.178;2023-01-16T01:06:52;3.10;99.90
64226;DHT22;50545;56.064;26.178;2023-01-16T01:09:19;3.00;99.90
64226;DHT22;50545;56.064;26.178;2023-01-16T01:11:46;3.00;99.90
64226;DHT22;50545;56.064;26.178;2023-01-16T01:14:13;3.10;99.90
64226;DHT22;50545;56.064;26.178;2023-01-16T01:16:40;3.00;99.90
64226;DHT22;50545;56.064;26.178;2023-01-16T01:19:08;3.00;99.90
64226;DHT22;50545;56.064;26.178;2023-01-16T01:21:53;3.00;99.90
64226;DHT22;50545;56.064;26.178;2023-01-16T01:24:20;3.10;99.90
64226;DHT22;50545;56.064;26.178;2023-01-16T01:26:48;3.00;99.90
64226;DHT22;50545;56.064;26.178;2023-01-16T01:29:15;3.00;99.90
64226;DHT22;50545;56.064;26.178;2023-01-16T01:31:42;3.10;99.90
64226;DHT22;50545;56.064;26.178;2023-01-16T01:34:09;3.10;99.90
64226;DHT22;50545;56.064;26.178;2023-01-16T01:36:37;3.10;99.90
64226;DHT22;50545;56.064;26.178;2023-01-16T01:39:04;3.10;99.90
64226;DHT22;50545;56.064;26.178;2023-01-16T01:41:31;3.10;99.90
64226;DHT22;50545;56.064;26.178;2023-01-16T01:43:58;3.00;99.90
64226;DHT22;50545;56.064;26.178;2023-01-16T01:46:44;3.00;99.90
64226;DHT22;50545;56.064;26.178;2023-01-16T01:51:43;3.00;99.90
64226;DHT22;50545;56.064;26.178;2023-01-16T01:54:30;3.00;99.90
64226;DHT22;50545;56.064;26.178;2023-01-16T01:57:02;3.00;99.90
64226;DHT22;50545;56.064;26.178;2023-01-16T01:59:34;3.00;99.90
64226;DHT22;50545;56.064;26.178;2023-01-16T02:02:03;3.00;99.90
64226;DHT22;50545;56.064;26.178;2023-01-16T02:04:34;3.00;99.90
64226;DHT22;50545;56.064;26.178;2023-01-16T02:07:06;3.00;99.90
64226;DHT22;50545;56.064;26.178;2023-01-16T02:09:33;3.00;99.90
64226;DHT22;50545;56.064;26.178;2023-01-16T02:12:08;3.00;99.90
64226;DHT22;50545;56.064;26.178;2023-01-16T02:14:38;2.90;99.90
64226;DHT22;50545;56.064;26.178;2023-01-16T02:17:15;3.00;99.90
64226;DHT22;50545;56.064;26.178;2023-01-16T02:29:07;3.00;99.90
64226;DHT22;50545;56.064;26.178;2023-01-16T02:32:03;3.00;99.90
64226;DHT22;50545;56.064;26.178;2023-01-16T02:37:44;3.00;99.90
64226;DHT22;50545;56.064;26.178;2023-01-16T02:40:41;3.00;99.90
64226;DHT22;50545;56.064;26.178;2023-01-16T02:43:33;3.10;99.90
64226;DHT22;50545;56.064;26.178;2023-01-16T02:46:19;3.10;99.90
64226;DHT22;50545;56.064;26.178;2023-01-16T02:49:29;3.10;99.90
64226;DHT22;50545;56.064;26.178;2023-01-16T02:52:11;3.10;99.90
64226;DHT22;50545;56.064;26.178;2023-01-16T02:54:42;3.10;99.90
64226;DHT22;50545;56.064;26.178;2023-01-16T02:57:17;3.10;99.90
64226;DHT22;50545;56.064;26.178;2023-01-16T02:59:45;3.10;99.90
64226;DHT22;50545;56.064;26.178;2023-01-16T03:02:14;3.00;99.90
64226;DHT22;50545;56.064;26.178;2023-01-16T03:04:46;3.00;99.90
64226;DHT22;50545;56.064;26.178;2023-01-16T03:22:07;3.00;99.90
64226;DHT22;50545;56.064;26.178;2023-01-16T03:30:14;3.00;99.90
64226;DHT22;50545;56.064;26.178;2023-01-16T03:32:54;3.00;99.90
64226;DHT22;50545;56.064;26.178;2023-01-16T03:35:37;3.00;99.90
64226;DHT22;50545;56.064;26.178;2023-01-16T03:38:10;3.00;99.90
64226;DHT22;50545;56.064;26.178;2023-01-16T03:40:44;3.00;99.90
64226;DHT22;50545;56.064;26.178;2023-01-16T03:43:27;3.00;99.90
64226;DHT22;50545;56.064;26.178;2023-01-16T03:46:03;3.10;99.90
64226;DHT22;50545;56.064;26.178;2023-01-16T03:48:39;3.10;99.90
64226;DHT22;50545;56.064;26.178;2023-01-16T03:51:13;3.00;99.90
64226;DHT22;50545;56.064;26.178;2023-01-16T03:53:45;3.10;99.90
64226;DHT22;50545;56.064;26.178;2023-01-16T03:56:20;3.10;99.90
64226;DHT22;50545;56.064;26.178;2023-01-16T03:58:51;3.10;99.90
64226;DHT22;50545;56.064;26.178;2023-01-16T04:07:02;3.10;99.90
64226;DHT22;50545;56.064;26.178;2023-01-16T04:10:15;3.10;99.90
64226;DHT22;50545;56.064;26.178;2023-01-16T04:12:48;3.10;99.90
64226;DHT22;50545;56.064;26.178;2023-01-16T04:15:18;3.10;99.90
64226;DHT22;50545;56.064;26.178;2023-01-16T04:17:46;3.10;99.90
64226;DHT22;50545;56.064;26.178;2023-01-16T04:20:14;3.10;99.90
64226;DHT22;50545;56.064;26.178;2023-01-16T04:22:41;3.10;99.90
64226;DHT22;50545;56.064;26.178;2023-01-16T04:25:13;3.00;99.90
64226;DHT22;50545;56.064;26.178;2023-01-16T04:27:41;3.00;99.90
64226;DHT22;50545;56.064;26.178;2023-01-16T04:30:08;3.10;99.90
64226;DHT22;50545;56.064;26.178;2023-01-16T04:32:36;3.10;99.90
64226;DHT22;50545;56.064;26.178;2023-01-16T04:35:05;3.10;99.90
64226;DHT22;50545;56.064;26.178;2023-01-16T04:37:32;3.10;99.90
64226;DHT22;50545;56.064;26.178;2023-01-16T04:40:00;3.10;99.90
64226;DHT22;50545;56.064;26.178;2023-01-16T04:42:28;3.10;99.90
64226;DHT22;50545;56.064;26.178;2023-01-16T04:44:55;3.10;99.90
64226;DHT22;50545;56.064;26.178;2023-01-16T04:47:22;3.10;99.90
64226;DHT22;50545;56.064;26.178;2023-01-16T04:49:49;3.10;99.90
64226;DHT22;50545;56.064;26.178;2023-01-16T04:52:16;3.10;99.90
64226;DHT22;50545;56.064;26.178;2023-01-16T04:54:44;3.10;99.90
64226;DHT22;50545;56.064;26.178;2023-01-16T04:57:11;3.10;99.90
64226;DHT22;50545;56.064;26.178;2023-01-16T04:59:38;3.10;99.90
64226;DHT22;50545;56.064;26.178;2023-01-16T05:02:05;3.10;99.90
64226;DHT22;50545;56.064;26.178;2023-01-16T05:04:33;3.10;99.90
64226;DHT22;50545;56.064;26.178;2023-01-16T05:07:00;3.10;99.90
64226;DHT22;50545;56.064;26.178;2023-01-16T05:09:27;3.20;99.90
64226;DHT22;50545;56.064;26.178;2023-01-16T05:11:54;3.20;99.90
64226;DHT22;50545;56.064;26.178;2023-01-16T05:14:22;3.20;99.90
64226;DHT22;50545;56.064;26.178;2023-01-16T05:16:49;3.20;99.90
64226;DHT22;50545;56.064;26.178;2023-01-16T05:19:17;3.20;99.90
64226;DHT22;50545;56.064;26.178;2023-01-16T05:21:44;3.20;99.90
64226;DHT22;50545;56.064;26.178;2023-01-16T05:24:11;3.20;99.90
64226;DHT22;50545;56.064;26.178;2023-01-16T05:26:38;3.20;99.90
64226;DHT22;50545;56.064;26.178;2023-01-16T05:29:06;3.20;99.90
64226;DHT22;50545;56.064;26.178;2023-01-16T05:31:33;3.20;99.90
64226;DHT22;50545;56.064;26.178;2023-01-16T05:34:00;3.20;99.90
64226;DHT22;50545;56.064;26.178;2023-01-16T05:36:28;3.20;99.90
64226;DHT22;50545;56.064;26.178;2023-01-16T05:38:55;3.30;99.90
64226;DHT22;50545;56.064;26.178;2023-01-16T05:41:22;3.30;99.90
64226;DHT22;50545;56.064;26.178;2023-01-16T05:43:50;3.30;99.90
64226;DHT22;50545;56.064;26.178;2023-01-16T05:46:17;3.20;99.90
64226;DHT22;50545;56.064;26.178;2023-01-16T05:48:44;3.30;99.90
64226;DHT22;50545;56.064;26.178;2023-01-16T05:51:11;3.30;99.90
64226;DHT22;50545;56.064;26.178;2023-01-16T05:53:39;3.30;99.90
64226;DHT22;50545;56.064;26.178;2023-01-16T05:56:10;3.30;99.90
64226;DHT22;50545;56.064;26.178;2023-01-16T05:58:38;3.30;99.90
64226;DHT22;50545;56.064;26.178;2023-01-16T06:01:05;3.30;99.90
64226;DHT22;50545;56.064;26.178;2023-01-16T06:03:32;3.40;99.90
64226;DHT22;50545;56.064;26.178;2023-01-16T06:06:00;3.40;99.90
64226;DHT22;50545;56.064;26.178;2023-01-16T06:08:27;3.40;99.90
64226;DHT22;50545;56.064;26.178;2023-01-16T06:10:56;3.30;99.90
64226;DHT22;50545;56.064;26.178;2023-01-16T06:13:24;3.30;99.90
64226;DHT22;50545;56.064;26.178;2023-01-16T06:15:51;3.30;99.90
64226;DHT22;50545;56.064;26.178;2023-01-16T06:18:19;3.30;99.90
64226;DHT22;50545;56.064;26.178;2023-01-16T06:20:46;3.40;99.90
64226;DHT22;50545;56.064;26.178;2023-01-16T06:23:13;3.40;99.90
64226;DHT22;50545;56.064;26.178;2023-01-16T06:25:40;3.40;99.90
64226;DHT22;50545;56.064;26.178;2023-01-16T06:28:07;3.30;99.90
64226;DHT22;50545;56.064;26.178;2023-01-16T06:30:34;3.40;99.90
64226;DHT22;50545;56.064;26.178;2023-01-16T06:33:02;3.40;99.90
64226;DHT22;50545;56.064;26.178;2023-01-16T06:35:29;3.40;99.90
64226;DHT22;50545;56.064;26.178;2023-01-16T06:37:56;3.40;99.90
64226;DHT22;50545;56.064;26.178;2023-01-16T06:40:24;3.50;99.90
64226;DHT22;50545;56.064;26.178;2023-01-16T06:42:51;3.40;99.90
64226;DHT22;50545;56.064;26.178;2023-01-16T06:45:18;3.50;99.90
64226;DHT22;50545;56.064;26.178;2023-01-16T06:47:52;3.50;99.90
64226;DHT22;50545;56.064;26.178;2023-01-16T06:50:20;3.50;99.90
64226;DHT22;50545;56.064;26.178;2023-01-16T06:52:47;3.50;99.90
64226;DHT22;50545;56.064;26.178;2023-01-16T06:55:15;3.50;99.90
64226;DHT22;50545;56.064;26.178;2023-01-16T06:57:44;3.50;99.90
64226;DHT22;50545;56.064;26.178;2023-01-16T07:00:12;3.50;99.90
64226;DHT22;50545;56.064;26.178;2023-01-16T07:02:40;3.50;99.90
64226;DHT22;50545;56.064;26.178;2023-01-16T07:05:09;3.40;99.90
64226;DHT22;50545;56.064;26.178;2023-01-16T07:07:36;3.40;99.90
64226;DHT22;50545;56.064;26.178;2023-01-16T07:10:04;3.40;99.90
64226;DHT22;50545;56.064;26.178;2023-01-16T07:12:31;3.40;99.90
64226;DHT22;50545;56.064;26.178;2023-01-16T07:14:58;3.40;99.90
64226;DHT22;50545;56.064;26.178;2023-01-16T07:17:44;3.40;99.90
64226;DHT22;50545;56.064;26.178;2023-01-16T07:20:30;3.40;99.90
64226;DHT22;50545;56.064;26.178;2023-01-16T07:23:30;3.40;99.90
64226;DHT22;50545;56.064;26.178;2023-01-16T07:26:01;3.40;99.90
64226;DHT22;50545;56.064;26.178;2023-01-16T07:28:29;3.50;99.90
64226;DHT22;50545;56.064;26.178;2023-01-16T07:30:57;3.50;99.90
64226;DHT22;50545;56.064;26.178;2023-01-16T07:33:25;3.50;99.90
64226;DHT22;50545;56.064;26.178;2023-01-16T07:35:52;3.50;99.90
64226;DHT22;50545;56.064;26.178;2023-01-16T07:38:19;3.50;99.90
64226;DHT22;50545;56.064;26.178;2023-01-16T07:40:47;3.50;99.90
64226;DHT22;50545;56.064;26.178;2023-01-16T07:43:14;3.60;99.90
64226;DHT22;50545;56.064;26.178;2023-01-16T07:45:41;3.60;99.90
64226;DHT22;50545;56.064;26.178;2023-01-16T07:48:09;3.60;99.90
64226;DHT22;50545;56.064;26.178;2023-01-16T07:50:36;3.60;99.90
64226;DHT22;50545;56.064;26.178;2023-01-16T07:53:03;3.60;99.90
64226;DHT22;50545;56.064;26.178;2023-01-16T07:55:31;3.70;99.90
64226;DHT22;50545;56.064;26.178;2023-01-16T07:57:58;3.70;99.90
64226;DHT22;50545;56.064;26.178;2023-01-16T08:00:25;3.70;99.90
64226;DHT22;50545;56.064;26.178;2023-01-16T08:02:52;3.70;99.90
64226;DHT22;50545;56.064;26.178;2023-01-16T08:05:19;3.70;99.90
64226;DHT22;50545;56.064;26.178;2023-01-16T08:07:46;3.80;99.90
64226;DHT22;50545;56.064;26.178;2023-01-16T08:10:14;3.80;99.90
64226;DHT22;50545;56.064;26.178;2023-01-16T08:12:41;3.80;99.90
64226;DHT22;50545;56.064;26.178;2023-01-16T08:15:09;3.80;99.90
64226;DHT22;50545;56.064;26.178;2023-01-16T08:17:38;3.90;99.90
64226;DHT22;50545;56.064;26.178;2023-01-16T08:20:08;3.90;99.90
64226;DHT22;50545;56.064;26.178;2023-01-16T08:22:41;3.90;99.90
64226;DHT22;50545;56.064;26.178;2023-01-16T08:25:09;3.90;99.90
64226;DHT22;50545;56.064;26.178;2023-01-16T08:27:36;3.90;99.90
64226;DHT22;50545;56.064;26.178;2023-01-16T08:30:05;3.90;99.90
64226;DHT22;50545;56.064;26.178;2023-01-16T08:32:32;3.90;99.90
64226;DHT22;50545;56.064;26.178;2023-01-16T08:34:59;3.90;99.90
64226;DHT22;50545;56.064;26.178;2023-01-16T08:37:26;4.00;99.90
64226;DHT22;50545;56.064;26.178;2023-01-16T08:39:53;4.00;99.90
64226;DHT22;50545;56.064;26.178;2023-01-16T08:42:21;4.00;99.90
64226;DHT22;50545;56.064;26.178;2023-01-16T08:45:13;4.00;99.90
64226;DHT22;50545;56.064;26.178;2023-01-16T08:48:09;4.00;99.90
64226;DHT22;50545;56.064;26.178;2023-01-16T08:50:56;4.00;99.90
64226;DHT22;50545;56.064;26.178;2023-01-16T08:53:42;4.00;99.90
64226;DHT22;50545;56.064;26.178;2023-01-16T08:56:09;4.10;99.90
64226;DHT22;50545;56.064;26.178;2023-01-16T08:58:36;4.10;99.90
64226;DHT22;50545;56.064;26.178;2023-01-16T09:01:04;4.10;99.90
64226;DHT22;50545;56.064;26.178;2023-01-16T09:03:31;4.10;99.90
64226;DHT22;50545;56.064;26.178;2023-01-16T09:06:01;4.10;99.90
64226;DHT22;50545;56.064;26.178;2023-01-16T09:08:28;4.20;99.90
64226;DHT22;50545;56.064;26.178;2023-01-16T09:10:55;4.20;99.90
64226;DHT22;50545;56.064;26.178;2023-01-16T09:13:41;4.20;99.90
64226;DHT22;50545;56.064;26.178;2023-01-16T09:16:27;4.20;99.90
64226;DHT22;50545;56.064;26.178;2023-01-16T09:18:54;4.20;99.90
64226;DHT22;50545;56.064;26.178;2023-01-16T09:21:22;4.20;99.90
64226;DHT22;50545;56.064;26.178;2023-01-16T09:23:52;4.20;99.90
64226;DHT22;50545;56.064;26.178;2023-01-16T09:26:19;4.20;99.90
64226;DHT22;50545;56.064;26.178;2023-01-16T09:28:46;4.20;99.90
64226;DHT22;50545;56.064;26.178;2023-01-16T09:31:14;4.20;99.90
64226;DHT22;50545;56.064;26.178;2023-01-16T09:33:42;4.20;99.90
64226;DHT22;50545;56.064;26.178;2023-01-16T09:36:09;4.20;99.90
64226;DHT22;50545;56.064;26.178;2023-01-16T09:38:36;4.20;99.90
64226;DHT22;50545;56.064;26.178;2023-01-16T09:41:03;4.20;99.90
64226;DHT22;50545;56.064;26.178;2023-01-16T09:43:40;4.20;99.90
64226;DHT22;50545;56.064;26.178;2023-01-16T09:46:12;4.20;99.90
64226;DHT22;50545;56.064;26.178;2023-01-16T09:49:04;4.30;99.90
64226;DHT22;50545;56.064;26.178;2023-01-16T09:51:36;4.30;99.90
64226;DHT22;50545;56.064;26.178;2023-01-16T09:54:06;4.30;99.90
64226;DHT22;50545;56.064;26.178;2023-01-16T09:57:02;4.30;99.90
64226;DHT22;50545;56.064;26.178;2023-01-16T09:59:50;4.30;99.90
64226;DHT22;50545;56.064;26.178;2023-01-16T10:04:54;4.40;99.90
64226;DHT22;50545;56.064;26.178;2023-01-16T10:10:32;4.40;99.90
64226;DHT22;50545;56.064;26.178;2023-01-16T10:19:02;4.40;99.90
64226;DHT22;50545;56.064;26.178;2023-01-16T10:21:50;4.40;99.90
64226;DHT22;50545;56.064;26.178;2023-01-16T10:24:25;4.40;99.90
64226;DHT22;50545;56.064;26.178;2023-01-16T10:27:04;4.40;99.90
64226;DHT22;50545;56.064;26.178;2023-01-16T10:32:36;4.30;99.90
64226;DHT22;50545;56.064;26.178;2023-01-16T10:35:23;4.40;99.90
64226;DHT22;50545;56.064;26.178;2023-01-16T10:37:51;4.40;99.90
64226;DHT22;50545;56.064;26.178;2023-01-16T10:40:23;4.40;99.90
64226;DHT22;50545;56.064;26.178;2023-01-16T10:43:17;4.50;99.90
64226;DHT22;50545;56.064;26.178;2023-01-16T10:46:14;4.50;99.90
64226;DHT22;50545;56.064;26.178;2023-01-16T10:49:17;4.50;99.90
64226;DHT22;50545;56.064;26.178;2023-01-16T10:51:59;4.50;99.90
64226;DHT22;50545;56.064;26.178;2023-01-16T10:54:27;4.40;99.90
64226;DHT22;50545;56.064;26.178;2023-01-16T10:56:54;4.40;99.90
64226;DHT22;50545;56.064;26.178;2023-01-16T10:59:25;4.40;99.90
64226;DHT22;50545;56.064;26.178;2023-01-16T11:01:54;4.40;99.90
64226;DHT22;50545;56.064;26.178;2023-01-16T11:04:34;4.40;99.90
64226;DHT22;50545;56.064;26.178;2023-01-16T11:07:17;4.40;99.90
64226;DHT22;50545;56.064;26.178;2023-01-16T11:09:45;4.40;99.90
64226;DHT22;50545;56.064;26.178;2023-01-16T11:12:26;4.40;99.90
64226;DHT22;50545;56.064;26.178;2023-01-16T11:15:21;4.40;99.90
64226;DHT22;50545;56.064;26.178;2023-01-16T11:18:33;4.40;99.90
64226;DHT22;50545;56.064;26.178;2023-01-16T11:21:31;4.40;99.90
64226;DHT22;50545;56.064;26.178;2023-01-16T11:24:03;4.40;99.90
64226;DHT22;50545;56.064;26.178;2023-01-16T11:26:35;4.40;99.90
64226;DHT22;50545;56.064;26.178;2023-01-16T11:29:02;4.50;99.90
64226;DHT22;50545;56.064;26.178;2023-01-16T11:31:31;4.50;99.90
64226;DHT22;50545;56.064;26.178;2023-01-16T11:34:01;4.60;99.90
64226;DHT22;50545;56.064;26.178;2023-01-16T11:36:32;4.60;99.90
64226;DHT22;50545;56.064;26.178;2023-01-16T11:39:00;4.60;99.90
64226;DHT22;50545;56.064;26.178;2023-01-16T11:41:35;4.60;99.90
64226;DHT22;50545;56.064;26.178;2023-01-16T11:46:57;4.60;99.90
64226;DHT22;50545;56.064;26.178;2023-01-16T11:49:27;4.50;99.90
64226;DHT22;50545;56.064;26.178;2023-01-16T11:51:54;4.50;99.90
64226;DHT22;50545;56.064;26.178;2023-01-16T11:54:30;4.50;99.90
64226;DHT22;50545;56.064;26.178;2023-01-16T12:00:01;4.40;99.90
64226;DHT22;50545;56.064;26.178;2023-01-16T12:05:21;4.40;99.90
64226;DHT22;50545;56.064;26.178;2023-01-16T12:08:37;4.30;99.90
64226;DHT22;50545;56.064;26.178;2023-01-16T12:13:55;4.30;99.90
64226;DHT22;50545;56.064;26.178;2023-01-16T12:30:51;4.10;99.90
64226;DHT22;50545;56.064;26.178;2023-01-16T12:33:54;4.10;99.90
64226;DHT22;50545;56.064;26.178;2023-01-16T12:36:56;4.10;99.90
64226;DHT22;50545;56.064;26.178;2023-01-16T12:45:55;4.00;99.90
64226;DHT22;50545;56.064;26.178;2023-01-16T12:59:33;4.00;99.90
64226;DHT22;50545;56.064;26.178;2023-01-16T13:05:02;4.00;99.90
64226;DHT22;50545;56.064;26.178;2023-01-16T13:07:36;4.00;99.90
64226;DHT22;50545;56.064;26.178;2023-01-16T13:12:52;4.00;99.90
64226;DHT22;50545;56.064;26.178;2023-01-16T13:15:41;3.90;99.90
64226;DHT22;50545;56.064;26.178;2023-01-16T13:18:14;3.90;99.90
64226;DHT22;50545;56.064;26.178;2023-01-16T13:20:45;3.90;99.90
64226;DHT22;50545;56.064;26.178;2023-01-16T13:23:17;3.90;99.90
64226;DHT22;50545;56.064;26.178;2023-01-16T13:25:48;3.90;99.90
64226;DHT22;50545;56.064;26.178;2023-01-16T13:28:49;3.90;99.90
64226;DHT22;50545;56.064;26.178;2023-01-16T13:34:27;3.90;99.90
64226;DHT22;50545;56.064;26.178;2023-01-16T13:42:51;3.80;99.90
64226;DHT22;50545;56.064;26.178;2023-01-16T13:45:29;3.80;99.90
64226;DHT22;50545;56.064;26.178;2023-01-16T13:48:29;3.80;99.90
64226;DHT22;50545;56.064;26.178;2023-01-16T13:51:02;3.80;99.90
64226;DHT22;50545;56.064;26.178;2023-01-16T13:53:31;3.80;99.90
64226;DHT22;50545;56.064;26.178;2023-01-16T13:56:22;3.80;99.90
64226;DHT22;50545;56.064;26.178;2023-01-16T13:59:13;3.80;99.90
64226;DHT22;50545;56.064;26.178;2023-01-16T14:06:49;3.70;99.90
64226;DHT22;50545;56.064;26.178;2023-01-16T14:17:21;3.70;99.90
64226;DHT22;50545;56.064;26.178;2023-01-16T14:20:00;3.70;99.90
64226;DHT22;50545;56.064;26.178;2023-01-16T14:22:39;3.60;99.90
64226;DHT22;50545;56.064;26.178;2023-01-16T14:25:20;3.60;99.90
64226;DHT22;50545;56.064;26.178;2023-01-16T14:27:52;3.60;99.90
64226;DHT22;50545;56.064;26.178;2023-01-16T14:30:26;3.60;99.90
64226;DHT22;50545;56.064;26.178;2023-01-16T14:32:58;3.60;99.90
64226;DHT22;50545;56.064;26.178;2023-01-16T14:35:30;3.60;99.90
64226;DHT22;50545;56.064;26.178;2023-01-16T14:38:17;3.50;99.90
64226;DHT22;50545;56.064;26.178;2023-01-16T14:41:01;3.50;99.90
64226;DHT22;50545;56.064;26.178;2023-01-16T14:44:19;3.50;99.90
64226;DHT22;50545;56.064;26.178;2023-01-16T14:47:22;3.50;99.90
64226;DHT22;50545;56.064;26.178;2023-01-16T14:50:15;3.40;99.90
64226;DHT22;50545;56.064;26.178;2023-01-16T14:56:03;3.40;99.90
64226;DHT22;50545;56.064;26.178;2023-01-16T15:01:26;3.50;99.90
64226;DHT22;50545;56.064;26.178;2023-01-16T15:04:17;3.50;99.90
64226;DHT22;50545;56.064;26.178;2023-01-16T15:06:50;3.50;99.90
64226;DHT22;50545;56.064;26.178;2023-01-16T15:09:20;3.50;99.90
64226;DHT22;50545;56.064;26.178;2023-01-16T15:11:52;3.50;99.90
64226;DHT22;50545;56.064;26.178;2023-01-16T15:14:22;3.50;99.90
64226;DHT22;50545;56.064;26.178;2023-01-16T15:20:27;3.50;99.90
64226;DHT22;50545;56.064;26.178;2023-01-16T15:23:26;3.50;99.90
64226;DHT22;50545;56.064;26.178;2023-01-16T15:31:08;3.40;99.90
64226;DHT22;50545;56.064;26.178;2023-01-16T15:33:36;3.30;99.90
64226;DHT22;50545;56.064;26.178;2023-01-16T15:39:00;3.30;99.90
64226;DHT22;50545;56.064;26.178;2023-01-16T15:41:30;3.30;99.90
64226;DHT22;50545;56.064;26.178;2023-01-16T15:44:20;3.20;99.90
64226;DHT22;50545;56.064;26.178;2023-01-16T15:51:10;3.20;99.90
64226;DHT22;50545;56.064;26.178;2023-01-16T15:53:12;3.20;99.90
64226;DHT22;50545;56.064;26.178;2023-01-16T15:55:42;3.10;99.90
64226;DHT22;50545;56.064;26.178;2023-01-16T15:58:20;3.10;99.90
64226;DHT22;50545;56.064;26.178;2023-01-16T16:01:01;3.10;99.90
64226;DHT22;50545;56.064;26.178;2023-01-16T16:03:39;3.10;99.90
64226;DHT22;50545;56.064;26.178;2023-01-16T16:06:13;3.10;99.90
64226;DHT22;50545;56.064;26.178;2023-01-16T16:08:52;3.10;99.90
64226;DHT22;50545;56.064;26.178;2023-01-16T16:11:25;3.10;99.90
64226;DHT22;50545;56.064;26.178;2023-01-16T16:14:31;3.10;99.90
64226;DHT22;50545;56.064;26.178;2023-01-16T16:17:23;3.00;99.90
64226;DHT22;50545;56.064;26.178;2023-01-16T16:20:29;3.00;99.90
64226;DHT22;50545;56.064;26.178;2023-01-16T16:23:20;3.00;99.90
64226;DHT22;50545;56.064;26.178;2023-01-16T16:31:22;3.10;99.90
64226;DHT22;50545;56.064;26.178;2023-01-16T16:36:48;3.00;99.90
64226;DHT22;50545;56.064;26.178;2023-01-16T16:47:46;3.00;99.90
64226;DHT22;50545;56.064;26.178;2023-01-16T16:53:22;3.10;99.90
64226;DHT22;50545;56.064;26.178;2023-01-16T16:56:11;3.00;99.90
64226;DHT22;50545;56.064;26.178;2023-01-16T16:58:45;3.00;99.90
64226;DHT22;50545;56.064;26.178;2023-01-16T17:01:21;3.00;99.90
64226;DHT22;50545;56.064;26.178;2023-01-16T17:03:58;3.00;99.90
64226;DHT22;50545;56.064;26.178;2023-01-16T17:06:30;3.00;99.90
64226;DHT22;50545;56.064;26.178;2023-01-16T17:08:58;3.00;99.90
64226;DHT22;50545;56.064;26.178;2023-01-16T17:11:26;3.00;99.90
64226;DHT22;50545;56.064;26.178;2023-01-16T17:13:53;3.00;99.90
64226;DHT22;50545;56.064;26.178;2023-01-16T17:16:23;2.90;99.90
64226;DHT22;50545;56.064;26.178;2023-01-16T17:19:20;2.90;99.90
64226;DHT22;50545;56.064;26.178;2023-01-16T17:21:48;2.90;99.90
64226;DHT22;50545;56.064;26.178;2023-01-16T17:24:17;2.90;99.90
64226;DHT22;50545;56.064;26.178;2023-01-16T17:26:46;2.90;99.90
64226;DHT22;50545;56.064;26.178;2023-01-16T17:29:13;2.80;99.90
64226;DHT22;50545;56.064;26.178;2023-01-16T17:31:45;2.80;99.90
64226;DHT22;50545;56.064;26.178;2023-01-16T17:34:17;2.70;99.90
64226;DHT22;50545;56.064;26.178;2023-01-16T17:36:45;2.70;99.90
64226;DHT22;50545;56.064;26.178;2023-01-16T17:39:21;2.70;99.90
64226;DHT22;50545;56.064;26.178;2023-01-16T17:41:48;2.60;99.90
64226;DHT22;50545;56.064;26.178;2023-01-16T17:44:16;2.60;99.90
64226;DHT22;50545;56.064;26.178;2023-01-16T17:47:05;2.50;99.90
64226;DHT22;50545;56.064;26.178;2023-01-16T17:49:32;2.50;99.90
64226;DHT22;50545;56.064;26.178;2023-01-16T17:52:20;2.40;99.90
64226;DHT22;50545;56.064;26.178;2023-01-16T17:54:48;2.40;99.90
64226;DHT22;50545;56.064;26.178;2023-01-16T17:57:33;2.30;99.90
64226;DHT22;50545;56.064;26.178;2023-01-16T18:00:01;2.30;99.90
64226;DHT22;50545;56.064;26.178;2023-01-16T18:02:28;2.20;99.90
64226;DHT22;50545;56.064;26.178;2023-01-16T18:04:56;2.20;99.90
64226;DHT22;50545;56.064;26.178;2023-01-16T18:07:24;2.20;99.90
64226;DHT22;50545;56.064;26.178;2023-01-16T18:09:51;2.10;99.90
64226;DHT22;50545;56.064;26.178;2023-01-16T18:12:18;2.10;99.90
64226;DHT22;50545;56.064;26.178;2023-01-16T18:15:05;2.00;99.90
64226;DHT22;50545;56.064;26.178;2023-01-16T18:17:51;2.00;99.90
64226;DHT22;50545;56.064;26.178;2023-01-16T18:20:18;2.00;99.90
64226;DHT22;50545;56.064;26.178;2023-01-16T18:22:46;2.00;99.90
64226;DHT22;50545;56.064;26.178;2023-01-16T18:25:14;1.90;99.90
64226;DHT22;50545;56.064;26.178;2023-01-16T18:27:43;1.90;99.90
64226;DHT22;50545;56.064;26.178;2023-01-16T18:30:12;1.90;99.90
64226;DHT22;50545;56.064;26.178;2023-01-16T18:32:40;1.90;99.90
64226;DHT22;50545;56.064;26.178;2023-01-16T18:35:08;1.80;99.90
64226;DHT22;50545;56.064;26.178;2023-01-16T18:40:11;1.80;99.90
64226;DHT22;50545;56.064;26.178;2023-01-16T18:42:57;1.80;99.90
64226;DHT22;50545;56.064;26.178;2023-01-16T18:45:43;1.70;99.90
64226;DHT22;50545;56.064;26.178;2023-01-16T18:48:28;1.70;99.90
64226;DHT22;50545;56.064;26.178;2023-01-16T18:51:16;1.60;99.90
64226;DHT22;50545;56.064;26.178;2023-01-16T18:54:18;1.60;99.90
64226;DHT22;50545;56.064;26.178;2023-01-16T18:57:10;1.60;99.90
64226;DHT22;50545;56.064;26.178;2023-01-16T18:59:57;1.50;99.90